Aeroporto :
LOGIN :

Iscrizione | Disclaimer

   EN    FR    IT 

 










Sommario :    VFR   VFR Marginale   IFR   IFR Intensivo   IFR Molto Intensivo
Visibilità : 
Base nubi : 
>= 8 km
>= 3000ft
5 / 8 km
1000 / 3000 ft
1500m / 5 km
500 / 1000 ft
800 / 1500m
200 / 500 ft
< 800m
< 200 ft
Simboli :   Temporali  Nebbia  Neve Forte  Precipitazioni Forti  Vento > 20 kt
SIGMETs :   Varie  Temporali  Ghiacco  Turbolenza  Onda orograficha  Ceneri Vulcaniche






- Altitudine del aeroporto : 249 ft


EGOS - RAF Shawbury

ULTIMO METAR :
  • 240820Z 36007KT 9999 FEW030 BKN055 06/00 Q1019 NOSIG RMK BLU BLU

METARs OBSOLETI :
  • 240750Z 03008KT 9999 FEW028 BKN055 07/01 Q1019 NOSIG RMK BLU BLU
  • 240720Z 02008KT 9999 FEW020 BKN060 07/02 Q1019 NOSIG RMK BLU BLU
  • 240650Z 02007KT 9999 FEW018 SCT040 BKN055 06/02 Q1019 RMK BLU
  • 240620Z 04006KT 9999 FEW006 BKN050 06/03 Q1019 RMK BLU
  • 240550Z AUTO 04005KT 9999 // OVC033/// 06/05 Q1019
  • 240520Z AUTO 01002KT 9999 // FEW023/// OVC030/// 06/05 Q1019
  • 240450Z AUTO 04002KT 6000 -RA BKN028/// BKN038/// 06/05 Q1019
  • 240420Z AUTO 08005KT 6000 -RA SCT004/// SCT020/// 06/05 Q1019
  • 240350Z AUTO 33003KT 9999 -RA FEW014/// OVC019/// 06/05 Q1019

TAF TAF EGOS
Valido dal 24 a 09 ore il 24 a 18 ore UTC


240749Z 2409/2418 36008KT 9999 FEW030



MetMap, La meteo Aeronautica in un colpo d'occhio ! - Copyright ORBIFLY Dicembre 2007 - Disclaimer

ORBIFLY MET'MAP TEAM :

Programmazione e sviluppo : Alexandra Zaïnal
Concezione : Baudouin d'Aumeries
Supporto tecnico e logistico : Manuel Goepfert
Aiuto : Marc-Olivier Méhu
Aiuto per la traduzione : Arnaldo La Scala




FONTI E CREDITI :

   NOAA